Latest Weather Observations for Yarrawonga

IDN60801

Issued at 10:05 pm EST Wednesday 23 April 2014 (issued every 30 minutes, with the page automatically refreshed every 10 minutes)

About weather observations | Map of weather stations | Latest weather observations for NSW | Other Formats
Station Details ID: 081124 Name: YARRAWONGA Lat: -36.03 Lon: 146.03 Height: 128.9 m
Data from the previous 72 hours. | See also: Recent months at Yarrawonga
Date/Time
EST
Temp
°C
App
Temp
°C
Dew
Point
Rel
Hum
%
Delta-T
°C
Wind Press
QNH
hPa
Press
MSL
hPa
Rain
since 9 am
mm
Dir
 
Spd
km/h
Gust
km/h
Spd
kts
Gust
kts
23/10:00pm 10.7 9.8 9.3 91 0.7 WSW 4 4 2 2 1014.6 1014.5 0.0
23/09:30pm 11.4 10.7 10.1 92 0.7 WSW 4 6 2 3 1014.7 - 0.0
23/09:00pm 11.9 11.3 10.5 91 0.7 WSW 4 4 2 2 1014.8 1014.7 0.0
23/08:30pm 12.1 11.6 10.7 91 0.7 WSW 4 4 2 2 1015.0 - 0.0
23/08:00pm 12.7 12.2 10.8 88 1.0 SW 4 4 2 2 1014.8 1014.7 0.0
23/07:30pm 13.4 13.4 11.1 86 1.2 W 2 4 1 2 1014.6 - 0.0
23/07:00pm 14.3 14.3 11.1 81 1.7 W 2 4 1 2 1014.5 1014.4 0.0
23/06:30pm 16.4 15.3 10.0 66 3.4 W 6 6 3 3 1014.4 - 0.0
23/06:00pm 17.3 16.6 10.2 63 3.8 W 4 6 2 3 1014.3 1014.2 0.0
23/05:30pm 17.9 16.9 10.3 61 4.1 W 6 9 3 5 1014.2 - 0.0
23/05:00pm 18.6 17.4 10.2 58 4.5 WNW 7 13 4 7 1014.1 1014.0 0.0
23/04:30pm 19.3 18.0 11.1 59 4.5 WNW 9 13 5 7 1014.0 - 0.0
23/04:00pm 20.4 19.1 11.3 56 5.0 NW 9 15 5 8 1014.1 1014.0 0.0
23/03:30pm 20.8 18.6 10.9 53 5.5 WNW 13 17 7 9 1014.1 - 0.0
23/03:00pm 21.1 19.5 11.7 55 5.3 NW 11 15 6 8 1014.0 1013.9 0.0
23/02:30pm 21.0 19.4 11.6 55 5.3 WNW 11 15 6 8 1014.1 - 0.0
23/02:00pm 21.3 19.9 12.2 56 5.1 WNW 11 15 6 8 1014.1 1014.0 0.0
23/01:30pm 21.1 19.7 12.3 57 5.0 WNW 11 19 6 10 1014.5 - 0.0
23/01:00pm 21.3 20.5 13.0 59 4.8 W 9 15 5 8 1014.8 1014.7 0.0
23/12:30pm 20.1 19.9 13.6 66 3.7 WNW 7 11 4 6 1015.4 - 0.0
23/12:00pm 20.2 20.1 13.4 65 3.9 W 6 11 3 6 1015.9 1015.7 0.0
23/11:30am 19.9 20.2 13.4 66 3.7 NW 4 9 2 5 1016.2 - 0.0
23/11:00am 18.7 18.6 13.8 73 2.8 NNW 7 9 4 5 1016.6 1016.4 0.0
23/10:30am 17.9 17.8 13.8 77 2.3 N 7 11 4 6 1016.7 - 0.0
23/10:00am 16.8 16.3 12.5 76 2.4 NNE 7 9 4 5 1016.6 1016.4 0.0
23/09:30am 15.9 14.7 11.7 76 2.3 NNE 9 11 5 6 1016.6 - 0.0
23/09:00am 15.4 14.3 11.8 79 2.0 NNE 9 13 5 7 1016.6 1016.4 1.6
23/08:30am 14.2 13.3 11.5 84 1.5 NNE 7 11 4 6 1016.5 - 1.6
23/08:00am 14.0 13.4 12.2 89 1.0 NE 7 13 4 7 1016.2 1016.0 1.6
23/07:30am 12.1 11.9 11.8 98 0.2 NE 4 6 2 3 1016.1 - 1.6
23/07:00am 12.1 12.3 11.8 98 0.2 NE 2 4 1 2 1015.9 1015.7 1.6
23/06:30am 11.9 11.1 11.6 98 0.2 NE 7 9 4 5 1015.6 - 1.6
23/06:00am 12.0 11.1 11.4 96 0.3 NE 7 9 4 5 1015.3 1015.1 1.6
23/05:30am 12.0 11.6 11.2 95 0.4 NNE 4 6 2 3 1015.2 - 1.6
23/05:00am 12.4 11.1 11.3 93 0.6 NNE 9 11 5 6 1014.8 1014.7 1.6
23/04:30am 12.8 11.9 11.2 90 0.8 ENE 7 9 4 5 1014.5 - 1.6
23/04:00am 13.5 12.3 11.7 89 1.0 N 9 15 5 8 1015.1 1014.9 1.4
23/03:30am 14.0 13.7 11.5 85 1.3 NE 4 9 2 5 1014.8 - 0.4
23/03:00am 13.9 13.6 11.4 85 1.3 E 4 7 2 4 1014.4 1014.3 0.4
23/02:30am 14.2 13.6 12.2 88 1.1 NE 7 13 4 7 1015.0 - 0.2
23/02:00am 14.0 13.5 12.2 89 1.0 ESE 6 9 3 5 1014.6 1014.5 0.2
23/01:30am 14.3 13.7 12.2 87 1.1 ENE 7 9 4 5 1015.1 - 0.2
23/01:00am 14.1 13.3 11.8 86 1.2 E 7 9 4 5 1015.1 1014.9 0.2
23/12:30am 14.9 13.8 12.0 83 1.6 E 9 11 5 6 1015.3 - 0.2
23/12:00am 15.4 13.6 12.2 81 1.8 E 13 17 7 9 1015.2 1015.0 0.2
 
Date/Time
EST
Temp
°C
App
Temp
°C
Dew
Point
Rel
Hum
%
Delta-T
°C
Wind Press
QNH
hPa
Press
MSL
hPa
Rain
since 9 am
mm
Dir
 
Spd
km/h
Gust
km/h
Spd
kts
Gust
kts
22/11:30pm 15.1 14.5 12.2 83 1.6 E 7 13 4 7 1015.3 - 0.2
22/11:00pm 15.0 14.4 12.3 84 1.5 ESE 7 9 4 5 1015.6 1015.4 0.2
22/10:30pm 15.0 14.5 12.5 85 1.4 E 7 9 4 5 1015.4 - 0.2
22/10:00pm 15.4 14.9 12.7 84 1.5 ESE 7 13 4 7 1015.8 1015.6 0.2
22/09:30pm 16.1 15.8 12.8 81 1.8 SSE 6 9 3 5 1016.3 - 0.2
22/09:00pm 16.4 15.9 12.8 79 2.0 SW 7 11 4 6 1015.9 1015.7 0.2
22/08:30pm 16.9 16.2 12.0 73 2.7 E 7 13 4 7 1015.4 - 0.2
22/08:00pm 16.5 15.6 12.5 77 2.2 E 9 11 5 6 1015.0 1014.8 0.2
22/07:30pm 17.2 16.6 12.3 73 2.7 E 7 9 4 5 1015.1 - 0.2
22/07:00pm 16.9 16.4 12.8 77 2.3 E 7 11 4 6 1014.8 1014.7 0.2
22/06:30pm 17.6 17.1 12.7 73 2.7 ENE 7 9 4 5 1014.5 - 0.0
22/06:00pm 17.8 16.9 12.5 71 3.0 ENE 9 9 5 5 1014.0 1013.9 0.0
22/05:30pm 18.5 18.2 12.7 69 3.3 ENE 6 7 3 4 1014.2 - 0.0
22/05:00pm 19.3 19.4 12.6 65 3.8 NE 4 7 2 4 1014.2 1014.1 0.0
22/04:30pm 20.3 19.7 11.8 58 4.7 NNE 6 7 3 4 1014.4 - 0.0
22/04:00pm 20.4 19.5 11.3 56 5.0 NNE 7 11 4 6 1014.3 1014.2 0.0
22/03:30pm 21.0 20.2 11.6 55 5.3 N 7 9 4 5 1014.5 - 0.0
22/03:00pm 21.2 19.2 10.1 49 6.0 NNE 11 17 6 9 1014.4 1014.3 0.0
22/02:30pm 21.1 18.7 10.0 49 6.0 NNE 13 24 7 13 1014.2 - 0.0
22/02:00pm 20.4 17.7 10.5 53 5.4 NE 15 24 8 13 1014.0 1013.9 0.0
22/01:30pm 20.0 18.9 9.9 52 5.4 NNE 6 13 3 7 1015.4 - 0.0
22/01:00pm 20.5 18.1 8.5 46 6.3 NNE 11 15 6 8 1016.1 1015.9 0.0
22/12:30pm 20.5 18.5 10.0 51 5.7 ENE 11 17 6 9 1016.6 - 0.0
22/12:00pm 20.1 18.2 9.1 49 5.8 NE 9 15 5 8 1017.5 1017.3 0.0
22/11:30am 19.4 18.0 9.6 53 5.2 NNE 7 13 4 7 1018.0 - 0.0
22/11:00am 17.6 15.4 9.5 59 4.3 ENE 11 19 6 10 1018.1 1017.9 0.0
22/10:30am 17.6 15.3 9.0 57 4.5 ENE 11 19 6 10 1018.1 - 0.0
22/10:00am 16.2 13.6 9.2 63 3.6 ENE 13 19 7 10 1018.2 1018.0 0.0
22/09:30am 15.4 12.6 8.4 63 3.6 NE 13 17 7 9 1018.5 - 0.0
22/09:00am 15.0 12.9 8.3 64 3.4 NE 9 19 5 10 1018.6 1018.4 0.0
22/08:30am 14.9 12.2 9.1 68 3.0 ENE 13 20 7 11 1018.0 - 0.0
22/08:00am 13.8 10.6 8.6 71 2.6 ENE 15 22 8 12 1017.9 1017.7 0.0
22/07:30am 13.2 10.3 8.3 72 2.5 ENE 13 20 7 11 1017.8 - 0.0
22/07:00am 12.8 9.6 8.5 75 2.2 ENE 15 22 8 12 1017.7 1017.5 0.0
22/06:30am 12.8 10.0 8.5 75 2.2 NE 13 19 7 10 1017.7 - 0.0
22/06:00am 12.9 9.7 8.4 74 2.2 ENE 15 22 8 12 1017.7 1017.5 0.0
22/05:30am 12.9 9.7 8.4 74 2.3 NE 15 19 8 10 1017.5 - 0.0
22/05:00am 12.7 9.9 8.4 75 2.1 NE 13 19 7 10 1017.5 1017.3 0.0
22/04:30am 12.8 10.4 8.5 75 2.2 NE 11 17 6 9 1017.5 - 0.0
22/04:00am 12.8 9.7 8.7 76 2.1 ENE 15 20 8 11 1017.3 1017.1 0.0
22/03:30am 12.7 9.7 9.2 79 1.8 ENE 15 26 8 14 1017.1 - 0.0
22/03:00am 12.5 9.5 9.1 80 1.7 ENE 15 22 8 12 1017.3 1017.1 0.0
22/02:30am 12.7 9.6 9.0 78 1.9 ENE 15 24 8 13 1017.5 - 0.0
22/02:00am 12.7 10.0 9.0 78 1.9 ENE 13 20 7 11 1017.8 1017.6 0.0
22/01:30am 12.3 9.6 8.8 79 1.8 E 13 17 7 9 1017.8 - 0.0
22/01:00am 12.7 9.2 8.8 77 2.0 ENE 17 24 9 13 1018.0 1017.8 0.0
22/12:30am 12.8 10.1 8.9 77 2.0 ENE 13 22 7 12 1018.3 - 0.0
22/12:00am 12.1 9.6 8.2 77 1.9 E 11 15 6 8 1018.3 1018.1 0.0
 
Date/Time
EST
Temp
°C
App
Temp
°C
Dew
Point
Rel
Hum
%
Delta-T
°C
Wind Press
QNH
hPa
Press
MSL
hPa
Rain
since 9 am
mm
Dir
 
Spd
km/h
Gust
km/h
Spd
kts
Gust
kts
21/11:30pm 12.0 9.9 8.1 77 1.9 E 9 13 5 7 1018.5 - 0.0
21/11:00pm 12.7 10.2 8.2 74 2.2 E 11 13 6 7 1018.8 1018.6 0.0
21/10:30pm 12.8 10.2 7.9 72 2.4 E 11 17 6 9 1018.9 - 0.0
21/10:00pm 13.6 10.8 8.7 72 2.5 ENE 13 20 7 11 1019.0 1018.8 0.0
21/09:30pm 13.0 10.5 8.1 72 2.4 E 11 17 6 9 1019.1 - 0.0
21/09:00pm 13.1 11.0 8.2 72 2.4 E 9 13 5 7 1019.3 1019.2 0.0
21/08:30pm 13.0 10.6 8.7 75 2.2 E 11 15 6 8 1019.2 - 0.0
21/08:00pm 11.7 9.7 8.6 81 1.5 E 9 11 5 6 1019.3 1019.2 0.0
21/07:30pm 11.7 9.6 8.2 79 1.7 E 9 11 5 6 1019.4 - 0.0
21/07:00pm 12.5 10.2 7.6 72 2.4 E 9 11 5 6 1019.5 1019.4 0.0
21/06:30pm 12.2 9.6 7.7 74 2.2 E 11 11 6 6 1019.3 - 0.0
21/06:00pm 13.4 11.2 7.8 69 2.8 ENE 9 11 5 6 1019.3 1019.2 0.0
21/05:30pm 15.6 13.7 7.6 59 4.0 ENE 7 11 4 6 1019.2 - 0.0
21/05:00pm 17.0 14.9 6.5 50 5.2 NE 7 11 4 6 1019.1 1019.0 0.0
21/04:30pm 17.7 15.1 6.3 47 5.6 NE 9 15 5 8 1019.1 - 0.0
21/04:00pm 17.8 15.1 5.7 45 5.9 NNE 9 15 5 8 1019.1 1019.0 0.0
21/03:30pm 18.1 15.2 6.3 46 5.9 NNE 11 17 6 9 1019.0 - 0.0
21/03:00pm 17.8 15.1 5.7 45 5.9 NNE 9 13 5 7 1019.3 1019.2 0.0
21/02:30pm 17.8 15.2 6.0 46 5.8 NNE 9 17 5 9 1019.2 - 0.0
21/02:00pm 17.9 15.9 6.1 46 5.8 NE 6 13 3 7 1019.5 1019.4 0.0
21/01:30pm 17.6 15.5 6.5 48 5.5 NNE 7 11 4 6 1019.8 - 0.0
21/01:00pm 16.6 14.6 6.1 50 5.1 E 6 13 3 7 1020.1 1020.0 0.0
21/12:30pm 16.0 14.4 6.4 53 4.7 NNE 4 7 2 4 1020.7 - 0.0
21/12:00pm 15.5 13.6 6.8 56 4.3 NE 6 9 3 5 1021.3 1021.2 0.0
21/11:30am 15.2 12.6 6.2 55 4.4 NNE 9 15 5 8 1021.4 - 0.0
21/11:00am 15.0 12.6 7.1 59 3.9 NNE 9 13 5 7 1021.8 1021.7 0.0
21/10:30am 13.4 10.8 7.8 69 2.8 NE 11 15 6 8 1021.5 - 0.0
21/10:00am 13.2 11.0 7.9 70 2.6 NE 9 15 5 8 1021.8 1021.7 0.0
21/09:30am 12.3 10.0 7.6 73 2.3 ENE 9 15 5 8 1022.2 - 0.0
21/09:00am 10.3 8.1 7.9 85 1.2 E 9 13 5 7 1022.2 1022.1 0.0
21/08:30am 9.4 7.4 7.2 86 1.0 E 7 13 4 7 1022.4 - 0.0
21/08:00am 8.7 6.7 7.2 90 0.7 E 7 9 4 5 1022.1 1022.0 0.0
21/07:30am 6.9 4.8 6.5 97 0.2 E 7 9 4 5 1021.8 - 0.0
21/07:00am 5.2 2.3 4.9 98 0.1 E 9 11 5 6 1021.4 1021.3 0.0
21/06:30am 4.7 1.4 4.4 98 0.1 E 11 13 6 7 1021.4 - 0.0
21/06:00am 4.4 1.8 4.1 98 0.1 E 7 7 4 4 1021.4 1021.3 0.0
21/05:30am 4.5 2.1 4.2 98 0.1 E 6 7 3 4 1021.0 - 0.0
21/05:00am 4.9 2.4 4.6 98 0.1 ENE 7 9 4 5 1020.7 1020.6 0.0
21/04:30am 5.0 2.5 4.7 98 0.1 E 7 7 4 4 1020.5 - 0.0
21/04:00am 5.0 2.5 4.6 97 0.2 E 7 9 4 5 1020.3 1020.2 0.0
21/03:30am 5.4 3.1 5.0 97 0.2 E 6 7 3 4 1020.1 - 0.0
21/03:00am 5.8 3.6 5.4 97 0.2 ESE 6 7 3 4 1020.1 1020.0 0.0
21/02:30am 6.1 3.8 5.7 97 0.2 ESE 7 9 4 5 1020.1 - 0.0
21/02:00am 5.5 3.0 4.9 96 0.3 E 7 7 4 4 1020.3 1020.2 0.0
21/01:30am 6.2 3.8 5.3 94 0.4 E 7 7 4 4 1020.4 - 0.0
21/01:00am 6.8 3.8 6.1 95 0.3 ESE 11 11 6 6 1020.3 1020.2 0.0
21/12:30am 7.2 4.7 6.5 95 0.3 ESE 9 11 5 6 1020.3 - 0.0
21/12:00am 7.2 5.0 6.3 94 0.4 ESE 7 7 4 4 1020.3 1020.2 0.0
 
Date/Time
EST
Temp
°C
App
Temp
°C
Dew
Point
Rel
Hum
%
Delta-T
°C
Wind Press
QNH
hPa
Press
MSL
hPa
Rain
since 9 am
mm
Dir
 
Spd
km/h
Gust
km/h
Spd
kts
Gust
kts
20/11:30pm 7.1 5.0 5.9 92 0.5 E 6 6 3 3 1020.4 - 0.0
20/11:00pm 7.5 5.5 6.3 92 0.5 ENE 6 6 3 3 1020.3 1020.2 0.0
20/10:30pm 7.6 5.9 5.9 89 0.8 ENE 4 4 2 2 1020.4 - 0.0

Other Formats:

Comma delimited format used in spreadsheet applications
http://www.bom.gov.au/fwo/IDN60801/IDN60801.94862.axf

JavaScript Object Notation format (JSON) in row-major order
http://www.bom.gov.au/fwo/IDN60801/IDN60801.94862.json